sensor_id;sensor_type;location;lat;lon;timestamp;temperature;humidity
44166;DHT22;30476;53.468;9.826;2023-06-05T00:02:01;13.10;97.50
44166;DHT22;30476;53.468;9.826;2023-06-05T00:04:27;13.10;97.70
44166;DHT22;30476;53.468;9.826;2023-06-05T00:06:54;13.00;97.60
44166;DHT22;30476;53.468;9.826;2023-06-05T00:09:20;13.00;97.70
44166;DHT22;30476;53.468;9.826;2023-06-05T00:11:46;12.90;98.00
44166;DHT22;30476;53.468;9.826;2023-06-05T00:14:11;12.90;98.00
44166;DHT22;30476;53.468;9.826;2023-06-05T00:16:37;12.90;98.40
44166;DHT22;30476;53.468;9.826;2023-06-05T00:19:03;12.80;98.20
44166;DHT22;30476;53.468;9.826;2023-06-05T00:21:29;12.80;98.10
44166;DHT22;30476;53.468;9.826;2023-06-05T00:23:55;12.70;98.60
44166;DHT22;30476;53.468;9.826;2023-06-05T00:26:21;12.70;98.80
44166;DHT22;30476;53.468;9.826;2023-06-05T00:28:47;12.60;98.70
44166;DHT22;30476;53.468;9.826;2023-06-05T00:31:13;12.70;98.70
44166;DHT22;30476;53.468;9.826;2023-06-05T00:33:39;12.60;98.50
44166;DHT22;30476;53.468;9.826;2023-06-05T00:36:06;12.60;98.40
44166;DHT22;30476;53.468;9.826;2023-06-05T00:38:32;12.60;98.70
44166;DHT22;30476;53.468;9.826;2023-06-05T00:40:58;12.60;98.60
44166;DHT22;30476;53.468;9.826;2023-06-05T00:43:24;12.50;98.70
44166;DHT22;30476;53.468;9.826;2023-06-05T00:45:55;12.50;98.60
44166;DHT22;30476;53.468;9.826;2023-06-05T00:48:22;12.50;98.50
44166;DHT22;30476;53.468;9.826;2023-06-05T00:50:48;12.50;98.30
44166;DHT22;30476;53.468;9.826;2023-06-05T00:53:14;12.50;98.10
44166;DHT22;30476;53.468;9.826;2023-06-05T00:55:40;12.50;97.90
44166;DHT22;30476;53.468;9.826;2023-06-05T00:58:06;12.50;97.80
44166;DHT22;30476;53.468;9.826;2023-06-05T01:00:32;12.50;97.70
44166;DHT22;30476;53.468;9.826;2023-06-05T01:02:59;12.50;97.60
44166;DHT22;30476;53.468;9.826;2023-06-05T01:05:27;12.40;97.50
44166;DHT22;30476;53.468;9.826;2023-06-05T01:07:54;12.50;97.60
44166;DHT22;30476;53.468;9.826;2023-06-05T01:10:20;12.40;97.60
44166;DHT22;30476;53.468;9.826;2023-06-05T01:12:57;12.40;97.30
44166;DHT22;30476;53.468;9.826;2023-06-05T01:15:24;12.40;97.60
44166;DHT22;30476;53.468;9.826;2023-06-05T01:17:57;12.40;97.40
44166;DHT22;30476;53.468;9.826;2023-06-05T01:20:34;12.30;97.50
44166;DHT22;30476;53.468;9.826;2023-06-05T01:23:05;12.30;98.30
44166;DHT22;30476;53.468;9.826;2023-06-05T01:25:31;12.20;98.40
44166;DHT22;30476;53.468;9.826;2023-06-05T01:28:12;12.20;98.60
44166;DHT22;30476;53.468;9.826;2023-06-05T01:30:46;12.20;98.50
44166;DHT22;30476;53.468;9.826;2023-06-05T01:33:37;12.20;98.70
44166;DHT22;30476;53.468;9.826;2023-06-05T01:36:12;12.10;98.80
44166;DHT22;30476;53.468;9.826;2023-06-05T01:38:40;12.00;99.10
44166;DHT22;30476;53.468;9.826;2023-06-05T01:41:07;12.00;99.10
44166;DHT22;30476;53.468;9.826;2023-06-05T01:43:34;12.00;99.10
44166;DHT22;30476;53.468;9.826;2023-06-05T01:46:00;11.90;99.10
44166;DHT22;30476;53.468;9.826;2023-06-05T01:48:27;11.90;99.30
44166;DHT22;30476;53.468;9.826;2023-06-05T01:51:00;11.80;99.40
44166;DHT22;30476;53.468;9.826;2023-06-05T01:53:27;11.80;99.40
44166;DHT22;30476;53.468;9.826;2023-06-05T01:55:54;11.90;99.30
44166;DHT22;30476;53.468;9.826;2023-06-05T01:58:23;11.80;99.20
44166;DHT22;30476;53.468;9.826;2023-06-05T02:00:49;11.80;99.30
44166;DHT22;30476;53.468;9.826;2023-06-05T02:03:14;11.80;99.20
44166;DHT22;30476;53.468;9.826;2023-06-05T02:05:42;11.80;99.20
44166;DHT22;30476;53.468;9.826;2023-06-05T02:08:07;11.70;99.40
44166;DHT22;30476;53.468;9.826;2023-06-05T02:10:34;11.70;99.40
44166;DHT22;30476;53.468;9.826;2023-06-05T02:13:01;11.70;99.30
44166;DHT22;30476;53.468;9.826;2023-06-05T02:15:26;11.70;99.20
44166;DHT22;30476;53.468;9.826;2023-06-05T02:17:54;11.70;98.80
44166;DHT22;30476;53.468;9.826;2023-06-05T02:20:23;11.70;98.80
44166;DHT22;30476;53.468;9.826;2023-06-05T02:22:49;11.70;99.20
44166;DHT22;30476;53.468;9.826;2023-06-05T02:25:21;11.60;98.90
44166;DHT22;30476;53.468;9.826;2023-06-05T02:27:47;11.60;99.00
44166;DHT22;30476;53.468;9.826;2023-06-05T02:30:13;11.60;99.10
44166;DHT22;30476;53.468;9.826;2023-06-05T02:32:39;11.60;99.10
44166;DHT22;30476;53.468;9.826;2023-06-05T02:35:10;11.50;99.30
44166;DHT22;30476;53.468;9.826;2023-06-05T02:37:36;11.50;99.20
44166;DHT22;30476;53.468;9.826;2023-06-05T02:40:12;11.50;99.10
44166;DHT22;30476;53.468;9.826;2023-06-05T02:42:38;11.50;99.00
44166;DHT22;30476;53.468;9.826;2023-06-05T02:45:04;11.40;98.80
44166;DHT22;30476;53.468;9.826;2023-06-05T02:47:31;11.40;98.70
44166;DHT22;30476;53.468;9.826;2023-06-05T02:50:00;11.40;98.50
44166;DHT22;30476;53.468;9.826;2023-06-05T02:52:26;11.40;98.50
44166;DHT22;30476;53.468;9.826;2023-06-05T02:54:53;11.40;98.60
44166;DHT22;30476;53.468;9.826;2023-06-05T02:57:19;11.40;98.70
44166;DHT22;30476;53.468;9.826;2023-06-05T02:59:45;11.40;98.80
44166;DHT22;30476;53.468;9.826;2023-06-05T03:02:11;11.30;98.60
44166;DHT22;30476;53.468;9.826;2023-06-05T03:04:37;11.40;98.80
44166;DHT22;30476;53.468;9.826;2023-06-05T03:07:08;11.30;98.90
44166;DHT22;30476;53.468;9.826;2023-06-05T03:09:35;11.30;98.90
44166;DHT22;30476;53.468;9.826;2023-06-05T03:12:02;11.30;98.90
44166;DHT22;30476;53.468;9.826;2023-06-05T03:14:27;11.30;98.90
44166;DHT22;30476;53.468;9.826;2023-06-05T03:16:53;11.20;98.80
44166;DHT22;30476;53.468;9.826;2023-06-05T03:19:22;11.30;98.70
44166;DHT22;30476;53.468;9.826;2023-06-05T03:21:47;11.20;98.70
44166;DHT22;30476;53.468;9.826;2023-06-05T03:24:15;11.20;98.80
44166;DHT22;30476;53.468;9.826;2023-06-05T03:26:42;11.20;98.80
44166;DHT22;30476;53.468;9.826;2023-06-05T03:29:09;11.20;99.00
44166;DHT22;30476;53.468;9.826;2023-06-05T03:31:36;11.20;98.90
44166;DHT22;30476;53.468;9.826;2023-06-05T03:34:02;11.20;98.80
44166;DHT22;30476;53.468;9.826;2023-06-05T03:36:30;11.20;99.20
44166;DHT22;30476;53.468;9.826;2023-06-05T03:38:56;11.20;98.90
44166;DHT22;30476;53.468;9.826;2023-06-05T03:41:22;11.20;99.10
44166;DHT22;30476;53.468;9.826;2023-06-05T03:43:48;11.20;99.30
44166;DHT22;30476;53.468;9.826;2023-06-05T03:46:17;11.10;99.20
44166;DHT22;30476;53.468;9.826;2023-06-05T03:48:48;11.20;99.40
44166;DHT22;30476;53.468;9.826;2023-06-05T03:51:27;11.10;99.50
44166;DHT22;30476;53.468;9.826;2023-06-05T03:53:56;11.10;99.70
44166;DHT22;30476;53.468;9.826;2023-06-05T03:56:24;11.10;99.50
44166;DHT22;30476;53.468;9.826;2023-06-05T03:58:54;11.10;99.80
44166;DHT22;30476;53.468;9.826;2023-06-05T04:01:20;11.20;99.80
44166;DHT22;30476;53.468;9.826;2023-06-05T04:03:46;11.20;99.90
44166;DHT22;30476;53.468;9.826;2023-06-05T04:06:12;11.20;99.90
44166;DHT22;30476;53.468;9.826;2023-06-05T04:08:37;11.20;99.90
44166;DHT22;30476;53.468;9.826;2023-06-05T04:11:03;11.20;99.90
44166;DHT22;30476;53.468;9.826;2023-06-05T04:13:29;11.20;99.90
44166;DHT22;30476;53.468;9.826;2023-06-05T04:15:55;11.30;99.90
44166;DHT22;30476;53.468;9.826;2023-06-05T04:18:21;11.30;99.90
44166;DHT22;30476;53.468;9.826;2023-06-05T04:20:47;11.30;99.90
44166;DHT22;30476;53.468;9.826;2023-06-05T04:23:13;11.20;99.90
44166;DHT22;30476;53.468;9.826;2023-06-05T04:25:39;11.30;99.90
44166;DHT22;30476;53.468;9.826;2023-06-05T04:28:11;11.30;99.90
44166;DHT22;30476;53.468;9.826;2023-06-05T04:30:37;11.30;99.90
44166;DHT22;30476;53.468;9.826;2023-06-05T04:33:03;11.40;99.90
44166;DHT22;30476;53.468;9.826;2023-06-05T04:35:31;11.40;99.90
44166;DHT22;30476;53.468;9.826;2023-06-05T04:37:59;11.50;99.90
44166;DHT22;30476;53.468;9.826;2023-06-05T04:40:25;11.50;99.90
44166;DHT22;30476;53.468;9.826;2023-06-05T04:42:50;11.50;99.90
44166;DHT22;30476;53.468;9.826;2023-06-05T04:45:19;11.60;99.90
44166;DHT22;30476;53.468;9.826;2023-06-05T04:47:45;11.60;99.90
44166;DHT22;30476;53.468;9.826;2023-06-05T04:50:22;11.60;99.90
44166;DHT22;30476;53.468;9.826;2023-06-05T04:52:47;11.70;99.90
44166;DHT22;30476;53.468;9.826;2023-06-05T04:55:13;11.80;99.90
44166;DHT22;30476;53.468;9.826;2023-06-05T04:57:39;11.80;99.90
44166;DHT22;30476;53.468;9.826;2023-06-05T05:00:05;11.90;99.90
44166;DHT22;30476;53.468;9.826;2023-06-05T05:02:33;12.00;99.90
44166;DHT22;30476;53.468;9.826;2023-06-05T05:04:59;12.00;99.90
44166;DHT22;30476;53.468;9.826;2023-06-05T05:07:24;12.10;99.90
44166;DHT22;30476;53.468;9.826;2023-06-05T05:09:51;12.10;99.90
44166;DHT22;30476;53.468;9.826;2023-06-05T05:12:17;12.20;99.90
44166;DHT22;30476;53.468;9.826;2023-06-05T05:14:43;12.30;99.90
44166;DHT22;30476;53.468;9.826;2023-06-05T05:17:10;12.30;99.90
44166;DHT22;30476;53.468;9.826;2023-06-05T05:19:36;12.40;99.90
44166;DHT22;30476;53.468;9.826;2023-06-05T05:22:06;12.40;99.90
44166;DHT22;30476;53.468;9.826;2023-06-05T05:24:32;12.50;99.90
44166;DHT22;30476;53.468;9.826;2023-06-05T05:26:58;12.60;99.90
44166;DHT22;30476;53.468;9.826;2023-06-05T05:29:23;12.70;99.90
44166;DHT22;30476;53.468;9.826;2023-06-05T05:31:49;12.70;99.90
44166;DHT22;30476;53.468;9.826;2023-06-05T05:34:16;12.80;99.90
44166;DHT22;30476;53.468;9.826;2023-06-05T05:36:42;12.90;99.90
44166;DHT22;30476;53.468;9.826;2023-06-05T05:39:08;13.00;99.90
44166;DHT22;30476;53.468;9.826;2023-06-05T05:41:35;13.10;99.90
44166;DHT22;30476;53.468;9.826;2023-06-05T05:44:01;13.20;99.90
44166;DHT22;30476;53.468;9.826;2023-06-05T05:46:26;13.30;99.90
44166;DHT22;30476;53.468;9.826;2023-06-05T05:48:52;13.40;99.90
44166;DHT22;30476;53.468;9.826;2023-06-05T05:51:19;13.50;99.90
44166;DHT22;30476;53.468;9.826;2023-06-05T05:53:46;13.60;99.90
44166;DHT22;30476;53.468;9.826;2023-06-05T05:56:12;13.60;99.90
44166;DHT22;30476;53.468;9.826;2023-06-05T05:58:38;13.70;99.90
44166;DHT22;30476;53.468;9.826;2023-06-05T06:01:04;13.90;99.90
44166;DHT22;30476;53.468;9.826;2023-06-05T06:03:29;13.90;99.90
44166;DHT22;30476;53.468;9.826;2023-06-05T06:05:55;14.00;99.90
44166;DHT22;30476;53.468;9.826;2023-06-05T06:08:22;14.10;99.90
44166;DHT22;30476;53.468;9.826;2023-06-05T06:10:48;14.30;99.90
44166;DHT22;30476;53.468;9.826;2023-06-05T06:13:14;14.30;99.90
44166;DHT22;30476;53.468;9.826;2023-06-05T06:15:40;14.40;99.90
44166;DHT22;30476;53.468;9.826;2023-06-05T06:18:06;14.60;99.90
44166;DHT22;30476;53.468;9.826;2023-06-05T06:20:32;14.60;99.90
44166;DHT22;30476;53.468;9.826;2023-06-05T06:22:59;14.70;99.90
44166;DHT22;30476;53.468;9.826;2023-06-05T06:25:25;14.80;99.90
44166;DHT22;30476;53.468;9.826;2023-06-05T06:27:55;15.00;99.90
44166;DHT22;30476;53.468;9.826;2023-06-05T06:30:21;15.10;99.90
44166;DHT22;30476;53.468;9.826;2023-06-05T06:32:47;15.20;99.90
44166;DHT22;30476;53.468;9.826;2023-06-05T06:35:13;15.30;99.90
44166;DHT22;30476;53.468;9.826;2023-06-05T06:37:40;15.40;99.90
44166;DHT22;30476;53.468;9.826;2023-06-05T06:40:06;15.50;99.90
44166;DHT22;30476;53.468;9.826;2023-06-05T06:42:37;15.60;99.90
44166;DHT22;30476;53.468;9.826;2023-06-05T06:45:03;15.80;99.90
44166;DHT22;30476;53.468;9.826;2023-06-05T06:47:30;15.90;99.90
44166;DHT22;30476;53.468;9.826;2023-06-05T06:49:56;16.00;99.90
44166;DHT22;30476;53.468;9.826;2023-06-05T06:52:23;16.10;99.90
44166;DHT22;30476;53.468;9.826;2023-06-05T06:54:49;16.30;99.90
44166;DHT22;30476;53.468;9.826;2023-06-05T06:57:15;16.40;99.90
44166;DHT22;30476;53.468;9.826;2023-06-05T06:59:41;16.50;99.90
44166;DHT22;30476;53.468;9.826;2023-06-05T07:02:22;16.70;99.90
44166;DHT22;30476;53.468;9.826;2023-06-05T07:04:48;16.80;99.90
44166;DHT22;30476;53.468;9.826;2023-06-05T07:07:16;16.90;99.90
44166;DHT22;30476;53.468;9.826;2023-06-05T07:09:43;17.10;99.90
44166;DHT22;30476;53.468;9.826;2023-06-05T07:12:11;17.30;99.90
44166;DHT22;30476;53.468;9.826;2023-06-05T07:14:37;17.30;99.90
44166;DHT22;30476;53.468;9.826;2023-06-05T07:17:04;17.40;99.90
44166;DHT22;30476;53.468;9.826;2023-06-05T07:19:31;17.60;99.90
44166;DHT22;30476;53.468;9.826;2023-06-05T07:21:57;17.80;99.90
44166;DHT22;30476;53.468;9.826;2023-06-05T07:24:24;17.80;99.90
44166;DHT22;30476;53.468;9.826;2023-06-05T07:26:54;17.90;99.90
44166;DHT22;30476;53.468;9.826;2023-06-05T07:29:21;18.10;99.90
44166;DHT22;30476;53.468;9.826;2023-06-05T07:31:49;18.20;99.90
44166;DHT22;30476;53.468;9.826;2023-06-05T07:34:17;18.30;99.90
44166;DHT22;30476;53.468;9.826;2023-06-05T07:36:45;18.40;99.80
44166;DHT22;30476;53.468;9.826;2023-06-05T07:39:15;18.60;99.80
44166;DHT22;30476;53.468;9.826;2023-06-05T07:41:41;18.70;99.60
44166;DHT22;30476;53.468;9.826;2023-06-05T07:44:12;18.80;99.30
44166;DHT22;30476;53.468;9.826;2023-06-05T07:46:42;18.90;98.80
44166;DHT22;30476;53.468;9.826;2023-06-05T07:49:08;19.00;98.50
44166;DHT22;30476;53.468;9.826;2023-06-05T07:51:35;19.10;98.20
44166;DHT22;30476;53.468;9.826;2023-06-05T07:54:03;19.30;98.00
44166;DHT22;30476;53.468;9.826;2023-06-05T07:56:29;19.40;98.10
44166;DHT22;30476;53.468;9.826;2023-06-05T07:58:57;19.50;97.80
44166;DHT22;30476;53.468;9.826;2023-06-05T08:01:23;19.60;97.20
44166;DHT22;30476;53.468;9.826;2023-06-05T08:03:49;19.70;97.10
44166;DHT22;30476;53.468;9.826;2023-06-05T08:06:14;19.80;96.70
44166;DHT22;30476;53.468;9.826;2023-06-05T08:08:41;20.00;96.80
44166;DHT22;30476;53.468;9.826;2023-06-05T08:11:08;20.00;96.60
44166;DHT22;30476;53.468;9.826;2023-06-05T08:13:36;20.10;95.90
44166;DHT22;30476;53.468;9.826;2023-06-05T08:16:02;20.30;95.70
44166;DHT22;30476;53.468;9.826;2023-06-05T08:18:28;20.40;95.60
44166;DHT22;30476;53.468;9.826;2023-06-05T08:20:53;20.50;95.40
44166;DHT22;30476;53.468;9.826;2023-06-05T08:23:19;20.60;95.10
44166;DHT22;30476;53.468;9.826;2023-06-05T08:25:45;20.70;95.00
44166;DHT22;30476;53.468;9.826;2023-06-05T08:28:14;20.80;94.80
44166;DHT22;30476;53.468;9.826;2023-06-05T08:30:41;20.90;94.70
44166;DHT22;30476;53.468;9.826;2023-06-05T08:33:07;21.00;94.20
44166;DHT22;30476;53.468;9.826;2023-06-05T08:35:33;21.10;94.00
44166;DHT22;30476;53.468;9.826;2023-06-05T08:37:59;21.20;93.90
44166;DHT22;30476;53.468;9.826;2023-06-05T08:40:28;21.30;93.80
44166;DHT22;30476;53.468;9.826;2023-06-05T08:42:55;21.40;93.20
44166;DHT22;30476;53.468;9.826;2023-06-05T08:45:21;21.50;92.90
44166;DHT22;30476;53.468;9.826;2023-06-05T08:47:50;21.60;92.70
44166;DHT22;30476;53.468;9.826;2023-06-05T08:50:16;21.60;92.50
44166;DHT22;30476;53.468;9.826;2023-06-05T08:52:43;21.70;92.20
44166;DHT22;30476;53.468;9.826;2023-06-05T08:55:11;21.80;91.50
44166;DHT22;30476;53.468;9.826;2023-06-05T08:57:41;21.90;91.40
44166;DHT22;30476;53.468;9.826;2023-06-05T09:00:08;21.90;91.30
44166;DHT22;30476;53.468;9.826;2023-06-05T09:02:40;22.00;90.90
44166;DHT22;30476;53.468;9.826;2023-06-05T09:05:10;22.10;90.70
44166;DHT22;30476;53.468;9.826;2023-06-05T09:07:37;22.20;90.60
44166;DHT22;30476;53.468;9.826;2023-06-05T09:10:04;22.30;90.90
44166;DHT22;30476;53.468;9.826;2023-06-05T09:12:30;22.30;90.90
44166;DHT22;30476;53.468;9.826;2023-06-05T09:14:56;22.40;90.40
44166;DHT22;30476;53.468;9.826;2023-06-05T09:17:22;22.50;90.00
44166;DHT22;30476;53.468;9.826;2023-06-05T09:19:48;22.60;89.40
44166;DHT22;30476;53.468;9.826;2023-06-05T09:22:15;22.70;89.20
44166;DHT22;30476;53.468;9.826;2023-06-05T09:24:41;22.80;89.10
44166;DHT22;30476;53.468;9.826;2023-06-05T09:27:09;22.90;88.00
44166;DHT22;30476;53.468;9.826;2023-06-05T09:29:40;23.00;87.80
44166;DHT22;30476;53.468;9.826;2023-06-05T09:32:16;23.10;87.30
44166;DHT22;30476;53.468;9.826;2023-06-05T09:34:43;23.20;86.10
44166;DHT22;30476;53.468;9.826;2023-06-05T09:37:12;23.30;86.50
44166;DHT22;30476;53.468;9.826;2023-06-05T09:39:40;23.30;83.70
44166;DHT22;30476;53.468;9.826;2023-06-05T09:42:08;23.40;83.70
44166;DHT22;30476;53.468;9.826;2023-06-05T09:44:35;23.50;81.50
44166;DHT22;30476;53.468;9.826;2023-06-05T09:47:06;23.60;81.90
44166;DHT22;30476;53.468;9.826;2023-06-05T09:52:07;23.70;81.60
44166;DHT22;30476;53.468;9.826;2023-06-05T09:54:37;23.80;82.30
44166;DHT22;30476;53.468;9.826;2023-06-05T09:57:04;23.90;81.60
44166;DHT22;30476;53.468;9.826;2023-06-05T09:59:32;24.00;80.10
44166;DHT22;30476;53.468;9.826;2023-06-05T10:02:03;24.10;79.20
44166;DHT22;30476;53.468;9.826;2023-06-05T10:04:52;24.20;79.40
44166;DHT22;30476;53.468;9.826;2023-06-05T10:07:20;24.30;79.50
44166;DHT22;30476;53.468;9.826;2023-06-05T10:09:49;24.40;79.90
44166;DHT22;30476;53.468;9.826;2023-06-05T10:12:15;24.50;81.00
44166;DHT22;30476;53.468;9.826;2023-06-05T10:14:42;24.60;78.80
44166;DHT22;30476;53.468;9.826;2023-06-05T10:17:11;24.60;78.40
44166;DHT22;30476;53.468;9.826;2023-06-05T10:19:41;24.70;77.70
44166;DHT22;30476;53.468;9.826;2023-06-05T10:22:07;24.80;77.30
44166;DHT22;30476;53.468;9.826;2023-06-05T10:24:38;24.90;75.60
44166;DHT22;30476;53.468;9.826;2023-06-05T10:27:23;25.00;75.40
44166;DHT22;30476;53.468;9.826;2023-06-05T10:33:10;25.10;72.00
44166;DHT22;30476;53.468;9.826;2023-06-05T10:38:21;25.30;71.70
44166;DHT22;30476;53.468;9.826;2023-06-05T10:40:56;25.40;73.20
44166;DHT22;30476;53.468;9.826;2023-06-05T10:45:52;25.60;70.90
44166;DHT22;30476;53.468;9.826;2023-06-05T10:48:18;25.70;71.20
44166;DHT22;30476;53.468;9.826;2023-06-05T10:50:44;25.70;71.40
44166;DHT22;30476;53.468;9.826;2023-06-05T10:53:41;25.90;71.10
44166;DHT22;30476;53.468;9.826;2023-06-05T10:56:07;26.10;71.70
44166;DHT22;30476;53.468;9.826;2023-06-05T10:58:33;26.20;70.50
44166;DHT22;30476;53.468;9.826;2023-06-05T11:01:22;26.20;69.20
44166;DHT22;30476;53.468;9.826;2023-06-05T11:03:58;26.30;69.00
44166;DHT22;30476;53.468;9.826;2023-06-05T11:06:25;26.30;69.20
44166;DHT22;30476;53.468;9.826;2023-06-05T11:09:14;26.40;67.10
44166;DHT22;30476;53.468;9.826;2023-06-05T11:11:56;26.50;65.80
44166;DHT22;30476;53.468;9.826;2023-06-05T11:14:23;26.60;66.00
44166;DHT22;30476;53.468;9.826;2023-06-05T11:16:49;26.60;65.60
44166;DHT22;30476;53.468;9.826;2023-06-05T11:22:08;26.80;63.40
44166;DHT22;30476;53.468;9.826;2023-06-05T11:24:35;26.90;62.60
44166;DHT22;30476;53.468;9.826;2023-06-05T11:27:05;27.00;63.10
44166;DHT22;30476;53.468;9.826;2023-06-05T11:29:32;27.00;62.60
44166;DHT22;30476;53.468;9.826;2023-06-05T11:31:59;27.10;62.70
44166;DHT22;30476;53.468;9.826;2023-06-05T11:34:25;27.20;62.60
44166;DHT22;30476;53.468;9.826;2023-06-05T11:36:53;27.20;62.60
44166;DHT22;30476;53.468;9.826;2023-06-05T11:39:19;27.40;62.10
44166;DHT22;30476;53.468;9.826;2023-06-05T11:41:46;27.50;61.00
44166;DHT22;30476;53.468;9.826;2023-06-05T11:44:13;27.70;60.70
44166;DHT22;30476;53.468;9.826;2023-06-05T11:46:40;27.70;60.40
44166;DHT22;30476;53.468;9.826;2023-06-05T11:49:09;27.70;59.80
44166;DHT22;30476;53.468;9.826;2023-06-05T11:51:47;27.80;60.50
44166;DHT22;30476;53.468;9.826;2023-06-05T11:54:26;27.80;58.70
44166;DHT22;30476;53.468;9.826;2023-06-05T11:56:59;27.90;60.40
44166;DHT22;30476;53.468;9.826;2023-06-05T11:59:34;28.00;61.00
44166;DHT22;30476;53.468;9.826;2023-06-05T12:02:00;28.10;58.70
44166;DHT22;30476;53.468;9.826;2023-06-05T12:04:25;28.10;58.40
44166;DHT22;30476;53.468;9.826;2023-06-05T12:06:51;28.20;59.40
44166;DHT22;30476;53.468;9.826;2023-06-05T12:09:18;28.30;58.50
44166;DHT22;30476;53.468;9.826;2023-06-05T12:11:45;28.30;59.10
44166;DHT22;30476;53.468;9.826;2023-06-05T12:14:12;28.40;56.50
44166;DHT22;30476;53.468;9.826;2023-06-05T12:16:41;28.40;57.60
44166;DHT22;30476;53.468;9.826;2023-06-05T12:19:15;28.40;57.30
44166;DHT22;30476;53.468;9.826;2023-06-05T12:21:46;28.50;57.10
44166;DHT22;30476;53.468;9.826;2023-06-05T12:24:12;28.40;55.90
44166;DHT22;30476;53.468;9.826;2023-06-05T12:26:49;28.40;55.80
44166;DHT22;30476;53.468;9.826;2023-06-05T12:29:19;28.60;55.80
44166;DHT22;30476;53.468;9.826;2023-06-05T12:31:46;28.80;56.10
44166;DHT22;30476;53.468;9.826;2023-06-05T12:34:12;28.90;55.60
44166;DHT22;30476;53.468;9.826;2023-06-05T12:36:39;29.00;53.30
44166;DHT22;30476;53.468;9.826;2023-06-05T12:39:06;29.00;55.40
44166;DHT22;30476;53.468;9.826;2023-06-05T12:41:33;29.00;54.90
44166;DHT22;30476;53.468;9.826;2023-06-05T12:44:03;29.00;53.50
44166;DHT22;30476;53.468;9.826;2023-06-05T12:46:31;29.10;53.20
44166;DHT22;30476;53.468;9.826;2023-06-05T12:48:58;29.10;53.10
44166;DHT22;30476;53.468;9.826;2023-06-05T12:51:25;29.10;52.90
44166;DHT22;30476;53.468;9.826;2023-06-05T12:53:53;29.10;53.80
44166;DHT22;30476;53.468;9.826;2023-06-05T12:56:19;29.00;53.90
44166;DHT22;30476;53.468;9.826;2023-06-05T12:58:57;28.90;53.20
44166;DHT22;30476;53.468;9.826;2023-06-05T13:01:23;28.90;54.50
44166;DHT22;30476;53.468;9.826;2023-06-05T13:03:50;29.10;54.50
44166;DHT22;30476;53.468;9.826;2023-06-05T13:06:17;29.10;54.60
44166;DHT22;30476;53.468;9.826;2023-06-05T13:08:43;29.20;52.60
44166;DHT22;30476;53.468;9.826;2023-06-05T13:11:09;29.10;52.40
44166;DHT22;30476;53.468;9.826;2023-06-05T13:13:36;29.10;52.00
44166;DHT22;30476;53.468;9.826;2023-06-05T13:16:03;29.10;52.50
44166;DHT22;30476;53.468;9.826;2023-06-05T13:18:31;29.10;52.00
44166;DHT22;30476;53.468;9.826;2023-06-05T13:20:57;29.10;51.90
44166;DHT22;30476;53.468;9.826;2023-06-05T13:23:22;29.10;52.30
44166;DHT22;30476;53.468;9.826;2023-06-05T13:25:48;29.10;51.80
44166;DHT22;30476;53.468;9.826;2023-06-05T13:28:14;29.10;51.10
44166;DHT22;30476;53.468;9.826;2023-06-05T13:30:40;29.10;51.60
44166;DHT22;30476;53.468;9.826;2023-06-05T13:33:05;29.20;50.40
44166;DHT22;30476;53.468;9.826;2023-06-05T13:35:31;29.20;50.10
44166;DHT22;30476;53.468;9.826;2023-06-05T13:37:57;29.30;50.70
44166;DHT22;30476;53.468;9.826;2023-06-05T13:40:23;29.30;49.70
44166;DHT22;30476;53.468;9.826;2023-06-05T13:42:49;29.20;50.10
44166;DHT22;30476;53.468;9.826;2023-06-05T13:45:16;29.20;49.10
44166;DHT22;30476;53.468;9.826;2023-06-05T13:47:42;29.30;49.90
44166;DHT22;30476;53.468;9.826;2023-06-05T13:50:08;29.20;49.50
44166;DHT22;30476;53.468;9.826;2023-06-05T13:52:34;29.10;49.40
44166;DHT22;30476;53.468;9.826;2023-06-05T13:55:00;29.00;50.10
44166;DHT22;30476;53.468;9.826;2023-06-05T13:57:26;28.90;50.20
44166;DHT22;30476;53.468;9.826;2023-06-05T13:59:52;28.90;50.20
44166;DHT22;30476;53.468;9.826;2023-06-05T14:02:18;28.80;50.80
44166;DHT22;30476;53.468;9.826;2023-06-05T14:04:44;28.80;50.00
44166;DHT22;30476;53.468;9.826;2023-06-05T14:07:09;28.80;49.70
44166;DHT22;30476;53.468;9.826;2023-06-05T14:09:36;28.70;49.50
44166;DHT22;30476;53.468;9.826;2023-06-05T14:12:02;28.60;49.10
44166;DHT22;30476;53.468;9.826;2023-06-05T14:14:29;28.60;49.00
44166;DHT22;30476;53.468;9.826;2023-06-05T14:16:55;28.40;48.00
44166;DHT22;30476;53.468;9.826;2023-06-05T14:19:21;28.30;48.50
44166;DHT22;30476;53.468;9.826;2023-06-05T14:21:46;28.20;49.30
44166;DHT22;30476;53.468;9.826;2023-06-05T14:24:12;28.20;49.90
44166;DHT22;30476;53.468;9.826;2023-06-05T14:26:39;28.20;50.50
44166;DHT22;30476;53.468;9.826;2023-06-05T14:29:06;28.10;50.90
44166;DHT22;30476;53.468;9.826;2023-06-05T14:31:31;28.10;51.00
44166;DHT22;30476;53.468;9.826;2023-06-05T14:33:57;28.00;51.00
44166;DHT22;30476;53.468;9.826;2023-06-05T14:36:23;27.90;50.80
44166;DHT22;30476;53.468;9.826;2023-06-05T14:38:49;27.80;50.90
44166;DHT22;30476;53.468;9.826;2023-06-05T14:41:14;27.90;51.40
44166;DHT22;30476;53.468;9.826;2023-06-05T14:43:40;27.80;51.90
44166;DHT22;30476;53.468;9.826;2023-06-05T14:46:06;27.80;51.90
44166;DHT22;30476;53.468;9.826;2023-06-05T14:48:32;27.70;53.20
44166;DHT22;30476;53.468;9.826;2023-06-05T14:50:57;27.60;54.00
44166;DHT22;30476;53.468;9.826;2023-06-05T14:53:24;27.50;54.90
44166;DHT22;30476;53.468;9.826;2023-06-05T14:55:50;27.30;55.40
44166;DHT22;30476;53.468;9.826;2023-06-05T14:58:16;27.20;55.10
44166;DHT22;30476;53.468;9.826;2023-06-05T15:00:42;27.10;55.20
44166;DHT22;30476;53.468;9.826;2023-06-05T15:03:08;27.00;55.90
44166;DHT22;30476;53.468;9.826;2023-06-05T15:05:33;27.00;57.30
44166;DHT22;30476;53.468;9.826;2023-06-05T15:07:59;26.80;56.10
44166;DHT22;30476;53.468;9.826;2023-06-05T15:10:25;26.80;55.30
44166;DHT22;30476;53.468;9.826;2023-06-05T15:12:53;26.70;57.80
44166;DHT22;30476;53.468;9.826;2023-06-05T15:15:26;26.70;58.90
44166;DHT22;30476;53.468;9.826;2023-06-05T15:17:51;26.70;58.90
44166;DHT22;30476;53.468;9.826;2023-06-05T15:20:21;26.50;59.60
44166;DHT22;30476;53.468;9.826;2023-06-05T15:22:47;26.40;58.00
44166;DHT22;30476;53.468;9.826;2023-06-05T15:25:12;26.40;58.70
44166;DHT22;30476;53.468;9.826;2023-06-05T15:27:38;26.30;59.60
44166;DHT22;30476;53.468;9.826;2023-06-05T15:30:05;26.20;60.80
44166;DHT22;30476;53.468;9.826;2023-06-05T15:32:31;26.20;61.60
44166;DHT22;30476;53.468;9.826;2023-06-05T15:34:57;26.10;61.70
44166;DHT22;30476;53.468;9.826;2023-06-05T15:37:24;26.10;61.70
44166;DHT22;30476;53.468;9.826;2023-06-05T15:39:50;26.00;61.60
44166;DHT22;30476;53.468;9.826;2023-06-05T15:42:27;25.90;60.30
44166;DHT22;30476;53.468;9.826;2023-06-05T15:45:13;25.90;61.40
44166;DHT22;30476;53.468;9.826;2023-06-05T15:47:41;25.80;61.50